Time;durP1;ratioP1;P1;durP2;ratioP2;P2;SDS_P1;SDS_P2;PMS_P1;PMS_P2;Temp;Humidity;BMP_temperature;BMP_pressure;BME280_temperature;BME280_humidity;BME280_pressure;Samples;Min_cycle;Max_cycle;Signal;HPM_P1;HPM_P2
2024/01/11 00:01:52;;;;;;;24.15;14.98;;;;;;;;;;5028186;28;20470;-71
2024/01/11 00:04:18;;;;;;;22.35;14.85;;;;;;;;;;5012213;28;20095;-72
2024/01/11 00:06:44;;;;;;;25.85;15.98;;;;;;;;;;5013318;28;20100;-72
2024/01/11 00:09:10;;;;;;;27.30;15.82;;;;;;;;;;4994932;28;20053;-72
2024/01/11 00:11:37;;;;;;;23.55;14.85;;;;;;;;;;5045084;28;20180;-72
2024/01/11 00:14:03;;;;;;;24.02;15.57;;;;;;;;;;5013022;28;20179;-71
2024/01/11 00:16:29;;;;;;;24.58;16.08;;;;;;;;;;5045033;28;20050;-71
2024/01/11 00:18:55;;;;;;;26.15;16.15;;;8.50;87.30;;;;;;5013247;28;20075;-72
2024/01/11 00:21:21;;;;;;;22.95;14.73;;;;;;;;;;5012759;28;20076;-72
2024/01/11 00:23:47;;;;;;;24.80;15.50;;;;;;;;;;5045100;28;20057;-72
2024/01/11 00:26:13;;;;;;;23.33;14.32;;;;;;;;;;5044915;28;20119;-72
2024/01/11 00:28:39;;;;;;;24.27;14.80;;;;;;;;;;5012497;28;20144;-72
2024/01/11 00:31:05;;;;;;;26.42;15.82;;;8.70;86.50;;;;;;5026971;28;20132;-72
2024/01/11 00:33:31;;;;;;;24.00;14.40;;;;;;;;;;5012984;28;20120;-72
2024/01/11 00:35:58;;;;;;;24.30;14.52;;;8.50;84.00;;;;;;5011728;28;20129;-71
2024/01/11 00:38:24;;;;;;;22.58;15.02;;;;;;;;;;5011748;28;20046;-72
2024/01/11 00:40:50;;;;;;;24.63;15.35;;;;;;;;;;5011574;28;20396;-72
2024/01/11 00:43:16;;;;;;;25.15;15.07;;;;;;;;;;5011418;28;20068;-71
2024/01/11 00:45:43;;;;;;;24.17;14.73;;;;;;;;;;5013108;28;20050;-71
2024/01/11 00:48:09;;;;;;;23.60;15.02;;;;;;;;;;5028172;28;20056;-71
2024/01/11 00:50:34;;;;;;;27.85;14.50;;;8.60;87.10;;;;;;5044489;28;20049;-72
2024/01/11 00:53:01;;;;;;;24.17;14.70;;;;;;;;;;4995254;28;20128;-72
2024/01/11 00:55:27;;;;;;;28.15;16.17;;;;;;;;;;5011791;28;20058;-72
2024/01/11 00:57:53;;;;;;;24.15;14.75;;;;;;;;;;5010727;28;20045;-72
2024/01/11 01:00:19;;;;;;;24.33;14.70;;;;;;;;;;5011601;28;20400;-71
2024/01/11 01:02:45;;;;;;;27.33;15.45;;;;;;;;;;5012511;28;20073;-72
2024/01/11 01:05:12;;;;;;;24.63;14.90;;;;;;;;;;5011312;28;20050;-72
2024/01/11 01:07:38;;;;;;;24.98;15.10;;;;;;;;;;5044138;28;20061;-72
2024/01/11 01:10:04;;;;;;;26.65;22.20;;;8.60;86.40;;;;;;5011840;28;20132;-71
2024/01/11 01:12:30;;;;;;;25.25;15.75;;;8.50;87.10;;;;;;5012633;28;20131;-71
2024/01/11 01:14:55;;;;;;;25.83;15.60;;;8.60;87.00;;;;;;5011965;28;20101;-71
2024/01/11 01:17:22;;;;;;;28.13;15.55;;;8.40;84.00;;;;;;5012755;28;20046;-71
2024/01/11 01:19:48;;;;;;;25.92;15.23;;;;;;;;;;5012539;28;20140;-72
2024/01/11 01:22:14;;;;;;;23.42;15.02;;;;;;;;;;5014466;28;20046;-72
2024/01/11 01:24:40;;;;;;;27.02;15.75;;;;;;;;;;5016102;28;20038;-71
2024/01/11 01:27:06;;;;;;;23.35;14.48;;;;;;;;;;5014800;28;20046;-71
2024/01/11 01:29:32;;;;;;;21.45;13.63;;;;;;;;;;5016303;28;20042;-71
2024/01/11 01:31:59;;;;;;;24.45;14.30;;;;;;;;;;5015975;28;20132;-71
2024/01/11 01:34:25;;;;;;;24.35;14.43;;;;;;;;;;5016196;28;20060;-71
2024/01/11 01:36:51;;;;;;;25.00;15.77;;;;;;;;;;5014617;28;20046;-71
2024/01/11 01:39:17;;;;;;;26.40;15.57;;;;;;;;;;5016094;28;20045;-71
2024/01/11 01:41:43;;;;;;;27.70;16.98;;;;;;;;;;5015135;28;20049;-71
2024/01/11 01:44:09;;;;;;;24.42;14.95;;;;;;;;;;5047763;28;20504;-71
2024/01/11 01:46:35;;;;;;;24.95;15.45;;;8.50;86.80;;;;;;5047542;28;20053;-71
2024/01/11 01:49:01;;;;;;;24.75;15.27;;;;;;;;;;5047721;28;20451;-71
2024/01/11 01:51:27;;;;;;;25.45;15.35;;;;;;;;;;5015571;28;20050;-71
2024/01/11 01:53:56;;;;;;;23.80;15.23;;;;;;;;;;5014801;28;20056;-70
2024/01/11 01:56:22;;;;;;;28.30;15.32;;;;;;;;;;4998121;28;20050;-71
2024/01/11 01:58:50;;;;;;;27.65;15.82;;;8.70;83.20;;;;;;5047612;28;20057;-70
2024/01/11 02:01:16;;;;;;;26.42;15.25;;;;;;;;;;5031185;28;20377;-71
2024/01/11 02:03:42;;;;;;;26.25;15.20;;;;;;;;;;5031029;28;20049;-71
2024/01/11 02:06:08;;;;;;;25.33;16.15;;;;;;;;;;5046689;28;20133;-71
2024/01/11 02:08:34;;;;;;;30.27;16.52;;;8.60;85.00;;;;;;5015299;28;20104;-71
2024/01/11 02:11:00;;;;;;;27.15;15.80;;;8.50;86.50;;;;;;5014319;28;20042;-71
2024/01/11 02:13:26;;;;;;;28.20;17.15;;;;;;;;;;5015398;28;20064;-70
2024/01/11 02:15:52;;;;;;;25.63;16.67;;;;;;;;;;5015303;28;20404;-71
2024/01/11 02:18:19;;;;;;;25.65;15.63;;;;;;;;;;5015009;28;20073;-71
2024/01/11 02:20:45;;;;;;;26.52;15.77;;;;;;;;;;5047269;28;20054;-71
2024/01/11 02:23:29;;;;;;;24.98;16.02;;;;;;;;;;5015491;28;20100;-71
2024/01/11 02:25:55;;;;;;;26.80;15.90;;;;;;;;;;5015160;28;20107;-72
2024/01/11 02:28:21;;;;;;;29.65;16.10;;;;;;;;;;5014037;28;20473;-72
2024/01/11 02:30:47;;;;;;;27.25;16.58;;;;;;;;;;5046347;28;20083;-72
2024/01/11 02:33:15;;;;;;;24.67;15.88;;;;;;;;;;5014306;28;20054;-72
2024/01/11 02:35:42;;;;;;;23.88;15.32;;;;;;;;;;4997998;28;20389;-72
2024/01/11 02:38:09;;;;;;;27.67;15.98;;;;;;;;;;5013159;28;20411;-72
2024/01/11 02:40:35;;;;;;;27.95;16.02;;;;;;;;;;5013436;28;20385;-71
2024/01/11 02:43:10;;;;;;;26.15;15.73;;;;;;;;;;5013496;28;20063;-71
2024/01/11 02:45:37;;;;;;;27.85;17.10;;;8.50;86.40;;;;;;5013082;28;20057;-71
2024/01/11 02:48:03;;;;;;;27.15;15.90;;;8.50;86.50;;;;;;5029966;28;20484;-72
2024/01/11 02:50:29;;;;;;;29.23;16.55;;;;;;;;;;5046646;28;20058;-71
2024/01/11 02:52:55;;;;;;;27.45;15.85;;;;;;;;;;5014631;28;20049;-72
2024/01/11 02:55:21;;;;;;;29.92;15.48;;;;;;;;;;5029513;28;20463;-72
2024/01/11 02:57:47;;;;;;;28.00;15.82;;;;;;;;;;5045550;28;20049;-72
2024/01/11 03:00:13;;;;;;;26.77;16.05;;;8.40;86.20;;;;;;5046332;28;20515;-72
2024/01/11 03:02:39;;;;;;;29.58;17.42;;;;;;;;;;5014791;28;20046;-72
2024/01/11 03:05:05;;;;;;;26.77;16.27;;;8.50;86.30;;;;;;5046710;28;20050;-72
2024/01/11 03:07:32;;;;;;;27.45;15.57;;;;;;;;;;5014528;28;20412;-72
2024/01/11 03:09:59;;;;;;;26.73;15.75;;;;;;;;;;5014214;28;20065;-71
2024/01/11 03:12:26;;;;;;;26.58;15.85;;;;;;;;;;5012466;28;20041;-71
2024/01/11 03:14:52;;;;;;;27.42;16.80;;;;;;;;;;5013382;28;20068;-71
2024/01/11 03:17:18;;;;;;;26.65;16.52;;;;;;;;;;4980718;28;20085;-71
2024/01/11 03:19:45;;;;;;;25.23;15.10;;;;;;;;;;4996518;28;20381;-70
2024/01/11 03:22:12;;;;;;;26.20;15.65;;;;;;;;;;5029787;28;20046;-72
2024/01/11 03:24:41;;;;;;;29.23;16.77;;;;;;;;;;5046113;28;20054;-71
2024/01/11 03:27:08;;;;;;;27.75;16.38;;;;;;;;;;5012460;28;20065;-72
2024/01/11 03:29:34;;;;;;;26.98;15.70;;;;;;;;;;5013687;28;20042;-71
2024/01/11 03:32:00;;;;;;;27.73;15.48;;;8.40;86.30;;;;;;5014248;28;20132;-72
2024/01/11 03:34:26;;;;;;;27.15;15.60;;;;;;;;;;5045860;28;20081;-71
2024/01/11 03:36:52;;;;;;;27.50;16.15;;;;;;;;;;5013978;28;20046;-72
2024/01/11 03:39:18;;;;;;;27.33;16.52;;;;;;;;;;5013933;28;20046;-72
2024/01/11 03:41:45;;;;;;;26.80;15.52;;;;;;;;;;5013399;28;20092;-72
2024/01/11 03:44:11;;;;;;;30.13;17.15;;;;;;;;;;5011586;28;20054;-72
2024/01/11 03:46:37;;;;;;;25.88;15.25;;;;;;;;;;4995966;28;20491;-71
2024/01/11 03:49:03;;;;;;;24.40;15.35;;;;;;;;;;5013380;28;20053;-71
2024/01/11 03:51:29;;;;;;;31.42;16.13;;;;;;;;;;5012781;28;20438;-72
2024/01/11 03:53:56;;;;;;;27.25;15.90;;;;;;;;;;5012128;28;20089;-72
2024/01/11 03:56:22;;;;;;;25.92;15.75;;;;;;;;;;5013558;28;20050;-71
2024/01/11 03:58:48;;;;;;;26.45;15.38;;;;;;;;;;5013649;28;20049;-71
2024/01/11 04:01:14;;;;;;;28.90;16.77;;;;;;;;;;5013309;28;20050;-72
2024/01/11 04:03:41;;;;;;;26.85;15.70;;;8.60;83.30;;;;;;5012163;28;20056;-72
2024/01/11 04:06:07;;;;;;;27.13;16.25;;;;;;;;;;5028781;28;20049;-71
2024/01/11 04:08:34;;;;;;;28.02;16.60;;;;;;;;;;5012847;28;20050;-71
2024/01/11 04:11:03;;;;;;;25.73;15.30;;;8.60;83.30;;;;;;5045096;28;20057;-71
2024/01/11 04:13:30;;;;;;;28.38;16.10;;;;;;;;;;5028736;28;20492;-71
2024/01/11 04:15:56;;;;;;;27.40;16.00;;;;;;;;;;5013554;28;20129;-71
2024/01/11 04:18:22;;;;;;;28.05;16.02;;;8.50;86.30;;;;;;5013085;28;20447;-71
2024/01/11 04:20:48;;;;;;;27.60;16.42;;;;;;;;;;5011793;28;20108;-70
2024/01/11 04:23:14;;;;;;;27.02;15.68;;;;;;;;;;5011582;28;20049;-70
2024/01/11 04:25:40;;;;;;;27.75;17.05;;;;;;;;;;5013151;28;20108;-71
2024/01/11 04:28:06;;;;;;;30.98;16.77;;;;;;;;;;5012930;28;20042;-72
2024/01/11 04:30:32;;;;;;;28.10;17.38;;;;;;;;;;4995194;28;20045;-72
2024/01/11 04:32:58;;;;;;;27.75;16.25;;;;;;;;;;5013004;28;20050;-72
2024/01/11 04:35:24;;;;;;;26.90;16.23;;;;;;;;;;5044337;28;20049;-72
2024/01/11 04:37:50;;;;;;;28.20;16.83;;;;;;;;;;5012883;28;20054;-72
2024/01/11 04:40:17;;;;;;;26.38;16.05;;;;;;;;;;5044412;28;20511;-72
2024/01/11 04:42:43;;;;;;;27.17;16.48;;;;;;;;;;5012527;28;20048;-72
2024/01/11 04:45:09;;;;;;;26.38;15.93;;;8.60;86.60;;;;;;5012786;28;20050;-72
2024/01/11 04:47:35;;;;;;;28.60;15.88;;;;;;;;;;5011308;28;20489;-72
2024/01/11 04:50:01;;;;;;;27.67;16.13;;;;;;;;;;5010853;28;20054;-72
2024/01/11 04:52:27;;;;;;;26.20;15.35;;;;;;;;;;5012748;28;20119;-72
2024/01/11 04:54:53;;;;;;;26.30;16.25;;;;;;;;;;5044320;28;20088;-72
2024/01/11 04:57:19;;;;;;;27.58;16.52;;;;;;;;;;5012480;28;20049;-72
2024/01/11 04:59:46;;;;;;;28.10;16.83;;;;;;;;;;5012606;28;20403;-72
2024/01/11 05:02:12;;;;;;;27.33;16.30;;;;;;;;;;5012692;28;20131;-72
2024/01/11 05:04:38;;;;;;;28.45;16.30;;;;;;;;;;5044163;28;20475;-72
2024/01/11 05:07:04;;;;;;;28.27;16.77;;;8.50;86.50;;;;;;5012401;28;20045;-72
2024/01/11 05:09:30;;;;;;;27.20;15.63;;;;;;;;;;5012685;28;20046;-72
2024/01/11 05:11:56;;;;;;;25.65;15.45;;;;;;;;;;5012579;28;20048;-72
2024/01/11 05:14:22;;;;;;;26.85;15.50;;;;;;;;;;5012611;28;20116;-72
2024/01/11 05:16:48;;;;;;;25.77;16.25;;;;;;;;;;5044380;28;20116;-71
2024/01/11 05:19:14;;;;;;;27.38;15.23;;;;;;;;;;5027373;28;20376;-72
2024/01/11 05:21:41;;;;;;;24.83;15.18;;;;;;;;;;5044147;28;20104;-72
2024/01/11 05:24:07;;;;;;;26.80;16.42;;;;;;;;;;5044601;28;20515;-72
2024/01/11 05:26:33;;;;;;;26.25;15.73;;;8.70;86.70;;;;;;5011381;28;20117;-72
2024/01/11 05:28:59;;;;;;;28.27;16.65;;;;;;;;;;5012000;28;20492;-72
2024/01/11 05:31:25;;;;;;;25.15;14.73;;;;;;;;;;5044097;28;20054;-72
2024/01/11 05:33:51;;;;;;;25.40;15.30;;;;;;;;;;5012042;28;20053;-73
2024/01/11 05:36:18;;;;;;;29.80;15.85;;;;;;;;;;5012468;28;20060;-72
2024/01/11 05:38:45;;;;;;;26.35;15.93;;;8.50;86.60;;;;;;5012093;28;20388;-72
2024/01/11 05:41:11;;;;;;;28.30;16.33;;;;;;;;;;5011199;28;20185;-72
2024/01/11 05:43:39;;;;;;;24.02;15.55;;;;;;;;;;5012204;28;20401;-72
2024/01/11 05:46:05;;;;;;;29.65;16.05;;;;;;;;;;5010786;28;20089;-71
2024/01/11 05:48:31;;;;;;;26.33;15.88;;;;;;;;;;5042635;28;20050;-72
2024/01/11 05:50:57;;;;;;;26.02;15.73;;;8.50;87.10;;;;;;5012291;28;20049;-72
2024/01/11 05:53:24;;;;;;;27.45;16.15;;;;;;;;;;5012286;28;20054;-72
2024/01/11 05:55:50;;;;;;;28.40;16.65;;;;;;;;;;5012202;28;20049;-72
2024/01/11 05:58:16;;;;;;;26.88;15.82;;;8.50;87.00;;;;;;5027712;28;20491;-72
2024/01/11 06:00:42;;;;;;;26.42;16.30;;;;;;;;;;5011726;28;20049;-72
2024/01/11 06:03:09;;;;;;;25.05;14.80;;;;;;;;;;5010454;28;20396;-72
2024/01/11 06:05:35;;;;;;;29.27;16.88;;;;;;;;;;5011156;28;20058;-72
2024/01/11 06:08:01;;;;;;;28.45;16.65;;;;;;;;;;5012672;28;20137;-72
2024/01/11 06:10:27;;;;;;;26.98;15.10;;;;;;;;;;5015040;28;20058;-71
2024/01/11 06:12:53;;;;;;;27.50;16.02;;;;;;;;;;5047703;28;20136;-72
2024/01/11 06:15:19;;;;;;;26.73;15.73;;;;;;;;;;5015442;28;20045;-71
2024/01/11 06:17:45;;;;;;;27.83;15.95;;;;;;;;;;5047256;28;20054;-72
2024/01/11 06:20:11;;;;;;;28.83;17.20;;;8.60;87.00;;;;;;5046882;28;20444;-71
2024/01/11 06:22:37;;;;;;;26.67;15.18;;;8.50;87.00;;;;;;5047256;28;20042;-71
2024/01/11 06:25:04;;;;;;;26.25;15.82;;;;;;;;;;5047273;28;20077;-71
2024/01/11 06:27:30;;;;;;;27.58;16.55;;;;;;;;;;5052464;28;20123;-71
2024/01/11 06:29:55;;;;;;;27.50;16.27;;;8.80;87.10;;;;;;5015034;28;20046;-71
2024/01/11 06:32:22;;;;;;;24.13;15.38;;;;;;;;;;5047113;28;20400;-71
2024/01/11 06:34:48;;;;;;;27.02;15.60;;;;;;;;;;5015145;28;20055;-72
2024/01/11 06:37:14;;;;;;;28.40;16.27;;;;;;;;;;5046901;28;20073;-72
2024/01/11 06:39:40;;;;;;;28.25;16.20;;;;;;;;;;5014712;28;20045;-72
2024/01/11 06:42:07;;;;;;;25.58;14.70;;;;;;;;;;5046954;28;20060;-72
2024/01/11 06:44:33;;;;;;;25.45;15.25;;;;;;;;;;5014855;28;20061;-72
2024/01/11 06:47:01;;;;;;;27.58;15.57;;;;;;;;;;5046020;28;20049;-72
2024/01/11 06:49:27;;;;;;;27.73;14.95;;;8.60;86.80;;;;;;5015141;28;20408;-72
2024/01/11 06:51:53;;;;;;;26.85;15.73;;;;;;;;;;5013077;28;20045;-72
2024/01/11 06:54:19;;;;;;;26.65;15.88;;;;;;;;;;5046218;28;20053;-73
2024/01/11 06:56:45;;;;;;;26.38;15.40;;;;;;;;;;5014358;28;20480;-72
2024/01/11 06:59:11;;;;;;;28.98;16.13;;;8.80;87.10;;;;;;5013448;28;20056;-72
2024/01/11 07:01:38;;;;;;;25.15;15.07;;;;;;;;;;5013353;28;20088;-72
2024/01/11 07:04:04;;;;;;;30.05;16.77;;;;;;;;;;5014711;28;20050;-72
2024/01/11 07:06:30;;;;;;;27.13;16.35;;;;;;;;;;5014171;28;20095;-72
2024/01/11 07:08:56;;;;;;;28.65;15.43;;;;;;;;;;5012108;28;20596;-72
2024/01/11 07:11:22;;;;;;;27.83;15.38;;;;;;;;;;5014193;28;20132;-73
2024/01/11 07:13:49;;;;;;;27.05;16.13;;;;;;;;;;5013276;28;20503;-72
2024/01/11 07:16:15;;;;;;;26.08;15.73;;;;;;;;;;5013090;28;20056;-72
2024/01/11 07:18:41;;;;;;;26.30;15.32;;;;;;;;;;5013004;28;20041;-72
2024/01/11 07:21:07;;;;;;;23.70;14.70;;;;;;;;;;5012141;28;20060;-73
2024/01/11 07:23:33;;;;;;;26.67;15.02;;;;;;;;;;5013160;28;20057;-73
2024/01/11 07:25:59;;;;;;;25.73;16.02;;;;;;;;;;5014315;28;20056;-72
2024/01/11 07:28:25;;;;;;;24.60;15.25;;;;;;;;;;5014006;28;20471;-72
2024/01/11 07:30:55;;;;;;;26.80;16.10;;;;;;;;;;5045961;28;20060;-73
2024/01/11 07:33:21;;;;;;;28.92;23.45;;;;;;;;;;5013827;28;20089;-72
2024/01/11 07:35:48;;;;;;;25.38;14.88;;;;;;;;;;5012327;28;20054;-72
2024/01/11 07:38:13;;;;;;;26.45;14.50;;;8.50;87.40;;;;;;5013102;28;20057;-72
2024/01/11 07:40:40;;;;;;;24.27;14.18;;;;;;;;;;5012968;28;20483;-72
2024/01/11 07:43:06;;;;;;;23.33;14.15;;;;;;;;;;5012842;28;20081;-72
2024/01/11 07:45:32;;;;;;;28.38;16.17;;;;;;;;;;5013744;28;20058;-72
2024/01/11 07:47:59;;;;;;;26.58;15.68;;;;;;;;;;4995394;28;20049;-72
2024/01/11 07:50:25;;;;;;;24.85;15.52;;;;;;;;;;5013849;28;20080;-72
2024/01/11 07:52:51;;;;;;;28.63;16.27;;;;;;;;;;5045406;28;20037;-73
2024/01/11 07:55:18;;;;;;;26.80;15.48;;;;;;;;;;5013194;28;20042;-73
2024/01/11 07:57:44;;;;;;;26.15;15.85;;;;;;;;;;5013388;28;20054;-73
2024/01/11 08:00:10;;;;;;;24.50;14.23;;;;;;;;;;5013611;28;20132;-72
2024/01/11 08:02:37;;;;;;;28.80;16.13;;;;;;;;;;5012031;28;20077;-73
2024/01/11 08:05:04;;;;;;;24.42;14.00;;;;;;;;;;5012272;28;20041;-71
2024/01/11 08:07:30;;;;;;;23.98;13.70;;;8.60;87.70;;;;;;4995959;28;20145;-72
2024/01/11 08:09:57;;;;;;;25.40;14.65;;;;;;;;;;5012165;28;20050;-72
2024/01/11 08:12:23;;;;;;;25.65;14.32;;;;;;;;;;5013422;28;20057;-72
2024/01/11 08:14:49;;;;;;;23.02;13.98;;;8.60;87.70;;;;;;5013112;28;20045;-70
2024/01/11 08:17:15;;;;;;;24.30;13.80;;;8.50;87.60;;;;;;5011694;28;20141;-70
2024/01/11 08:19:42;;;;;;;23.20;14.32;;;;;;;;;;5012242;28;20113;-71
2024/01/11 08:22:09;;;;;;;89.32;17.40;;;;;;;;;;5011405;28;20560;-71
2024/01/11 08:24:35;;;;;;;115.05;17.95;;;8.60;84.90;;;;;;5011443;28;20058;-71
2024/01/11 08:27:01;;;;;;;43.75;15.50;;;;;;;;;;5028629;28;20049;-70
2024/01/11 08:29:27;;;;;;;36.17;15.48;;;;;;;;;;5013196;28;20408;-71
2024/01/11 08:31:54;;;;;;;32.55;16.23;;;8.70;88.30;;;;;;4994420;28;20054;-71
2024/01/11 08:34:21;;;;;;;28.65;15.43;;;;;;;;;;5011421;28;20096;-70
2024/01/11 08:36:47;;;;;;;36.65;15.52;;;;;;;;;;5011576;28;20050;-69
2024/01/11 08:39:16;;;;;;;32.92;15.10;;;;;;;;;;5013039;28;20042;-70
2024/01/11 08:41:42;;;;;;;26.85;14.85;;;8.80;87.90;;;;;;5012438;28;20124;-70
2024/01/11 08:44:09;;;;;;;27.15;13.75;;;;;;;;;;5012091;28;20137;-69
2024/01/11 08:46:35;;;;;;;30.40;14.77;;;;;;;;;;5012177;28;20049;-69
2024/01/11 08:49:03;;;;;;;24.05;13.68;;;;;;;;;;5011668;28;20111;-69
2024/01/11 08:51:34;;;;;;;28.50;13.95;;;8.80;83.40;;;;;;5010180;28;20075;-70
2024/01/11 08:54:00;;;;;;;26.23;13.98;;;;;;;;;;5012217;28;20387;-70
2024/01/11 08:56:27;;;;;;;23.55;13.65;;;;;;;;;;5012409;28;20050;-70
2024/01/11 08:58:54;;;;;;;27.00;14.10;;;;;;;;;;5012779;28;20125;-70
2024/01/11 09:01:22;;;;;;;27.13;14.55;;;;;;;;;;5010162;28;20041;-70
2024/01/11 09:03:48;;;;;;;24.92;13.02;;;;;;;;;;5010803;28;20092;-70
2024/01/11 09:06:14;;;;;;;22.30;12.48;;;;;;;;;;5043996;28;20049;-70
2024/01/11 09:08:41;;;;;;;23.75;13.35;;;;;;;;;;5044717;28;20052;-70
2024/01/11 09:11:10;;;;;;;21.80;13.02;;;;;;;;;;5027975;28;20058;-70
2024/01/11 09:13:36;;;;;;;24.05;12.25;;;;;;;;;;4994667;28;20107;-69
2024/01/11 09:16:03;;;;;;;26.77;13.43;;;;;;;;;;5023016;28;20081;-69
2024/01/11 09:18:29;;;;;;;22.10;11.50;;;;;;;;;;4988943;28;20078;-69
2024/01/11 09:20:56;;;;;;;24.77;13.57;;;;;;;;;;4978794;28;20053;-69
2024/01/11 09:23:22;;;;;;;21.80;13.02;;;;;;;;;;5012714;28;20411;-69
2024/01/11 09:25:48;;;;;;;24.00;11.90;;;;;;;;;;5001783;28;20395;-71
2024/01/11 09:28:14;;;;;;;22.27;12.48;;;;;;;;;;4997114;28;20068;-71
2024/01/11 09:30:40;;;;;;;22.25;12.70;;;;;;;;;;5010901;28;20050;-74
2024/01/11 09:33:06;;;;;;;20.58;11.60;;;;;;;;;;5043427;28;20136;-69
2024/01/11 09:35:32;;;;;;;24.77;13.05;;;;;;;;;;5026481;28;20078;-70
2024/01/11 09:37:58;;;;;;;24.55;12.70;;;;;;;;;;5011076;28;20030;-71
2024/01/11 09:40:24;;;;;;;26.55;12.93;;;9.40;87.80;;;;;;4995078;28;20045;-70
2024/01/11 09:42:50;;;;;;;24.30;12.27;;;;;;;;;;5029345;28;20549;-70
2024/01/11 09:45:17;;;;;;;21.60;12.43;;;9.40;84.00;;;;;;4998038;28;20050;-70
2024/01/11 09:47:45;;;;;;;19.60;12.25;;;9.50;85.10;;;;;;4998498;28;20420;-70
2024/01/11 09:50:17;;;;;;;23.77;17.73;;;;;;;;;;5015169;28;20392;-70
2024/01/11 09:52:46;;;;;;;22.85;12.98;;;;;;;;;;4999202;28;20681;-71
2024/01/11 09:55:13;;;;;;;21.90;12.27;;;9.30;88.10;;;;;;5014590;28;20034;-71
2024/01/11 09:57:39;;;;;;;20.13;12.10;;;;;;;;;;5014061;28;20049;-71
2024/01/11 10:00:09;;;;;;;22.58;13.05;;;;;;;;;;4997859;28;20084;-70
2024/01/11 10:02:35;;;;;;;22.45;13.30;;;;;;;;;;4997731;28;20400;-71
2024/01/11 10:05:01;;;;;;;22.00;12.10;;;;;;;;;;5030820;28;20128;-71
2024/01/11 10:07:27;;;;;;;22.33;12.70;;;;;;;;;;5001875;28;20048;-69
2024/01/11 10:09:53;;;;;;;21.20;13.20;;;;;;;;;;4998355;28;20661;-77
2024/01/11 10:12:23;;;;;;;20.80;12.05;;;;;;;;;;4990208;28;20064;-70
2024/01/11 10:14:49;;;;;;;25.05;13.07;;;;;;;;;;4994475;28;20545;-70
2024/01/11 10:17:15;;;;;;;28.35;13.40;;;;;;;;;;4981002;28;20484;-70
2024/01/11 10:19:42;;;;;;;22.55;13.65;;;;;;;;;;5009519;28;20125;-72
2024/01/11 10:22:12;;;;;;;25.80;13.35;;;;;;;;;;5027819;28;20088;-76
2024/01/11 10:24:39;;;;;;;36.53;14.25;;;;;;;;;;5028351;28;20046;-72
2024/01/11 10:27:05;;;;;;;34.47;13.77;;;;;;;;;;4993248;28;20108;-67
2024/01/11 10:29:32;;;;;;;38.03;13.27;;;;;;;;;;5043647;28;20492;-69
2024/01/11 10:31:58;;;;;;;45.50;14.55;;;;;;;;;;5042346;28;20230;-70
2024/01/11 10:34:25;;;;;;;38.13;15.27;;;;;;;;;;4991607;28;20045;-66
2024/01/11 10:36:52;;;;;;;38.70;14.18;;;;;;;;;;5013426;28;20037;-65
2024/01/11 10:39:18;;;;;;;69.22;15.98;;;;;;;;;;4977317;28;20551;-67
2024/01/11 10:41:47;;;;;;;44.17;14.18;;;;;;;;;;4996442;28;20041;-67
2024/01/11 10:44:24;;;;;;;83.78;16.92;;;;;;;;;;5021842;28;20100;-69
2024/01/11 10:46:50;;;;;;;48.45;15.18;;;;;;;;;;4993179;28;20053;-69
2024/01/11 10:49:20;;;;;;;46.40;15.00;;;;;;;;;;5012167;28;20068;-69
2024/01/11 10:52:08;;;;;;;202.60;27.55;;;9.30;88.00;;;;;;5041653;28;20498;-69
2024/01/11 10:54:34;;;;;;;100.22;20.13;;;;;;;;;;5008275;28;20120;-73
2024/01/11 10:57:00;;;;;;;51.25;15.15;;;;;;;;;;5022715;28;20488;-70
2024/01/11 10:59:30;;;;;;;85.13;17.33;;;;;;;;;;4993782;28;20046;-69
2024/01/11 11:01:57;;;;;;;57.50;15.25;;;9.30;88.90;;;;;;5020749;28;20053;-71
2024/01/11 11:04:24;;;;;;;142.88;20.52;;;9.50;90.70;;;;;;4992747;28;20042;-71
2024/01/11 11:06:57;;;;;;;118.47;20.85;;;9.20;88.90;;;;;;4993611;28;20054;-71
2024/01/11 11:09:23;;;;;;;133.50;21.90;;;9.30;90.80;;;;;;4997701;28;20046;-69
2024/01/11 11:11:49;;;;;;;138.73;23.98;;;;;;;;;;5039099;28;20038;-70
2024/01/11 11:14:15;;;;;;;89.85;19.88;;;;;;;;;;5007176;28;20046;-71
2024/01/11 11:16:42;;;;;;;128.75;22.55;;;;;;;;;;5010484;28;20046;-69
2024/01/11 11:19:08;;;;;;;168.13;23.77;;;;;;;;;;5007553;28;20557;-68
2024/01/11 11:21:42;;;;;;;467.08;46.95;;;9.40;90.00;;;;;;5024593;28;20096;-68
2024/01/11 11:24:09;;;;;;;252.40;37.72;;;;;;;;;;5023267;28;20115;-68
2024/01/11 11:26:35;;;;;;;356.52;34.40;;;;;;;;;;5022680;28;20049;-67
2024/01/11 11:29:01;;;;;;;235.00;28.70;;;;;;;;;;5015889;28;20042;-65
2024/01/11 11:31:36;;;;;;;209.00;31.30;;;9.60;89.90;;;;;;4979331;28;20042;-68
2024/01/11 11:34:04;;;;;;;184.88;24.05;;;9.60;90.60;;;;;;4992604;28;20487;-68
2024/01/11 11:36:31;;;;;;;139.57;25.73;;;;;;;;;;5024282;28;20046;-68
2024/01/11 11:39:00;;;;;;;140.73;23.70;;;;;;;;;;4991786;28;20100;-67
2024/01/11 11:41:35;;;;;;;109.43;20.17;;;9.70;90.70;;;;;;5009744;28;20533;-70
2024/01/11 11:44:04;;;;;;;110.43;22.38;;;9.30;90.10;;;;;;4994757;28;20413;-69
2024/01/11 11:46:31;;;;;;;108.65;20.00;;;9.40;92.10;;;;;;4993703;28;20058;-69
2024/01/11 11:48:57;;;;;;;81.70;18.80;;;9.50;92.30;;;;;;4996620;28;20412;-69
2024/01/11 11:51:24;;;;;;;81.45;19.88;;;;;;;;;;5027101;28;20062;-67
2024/01/11 11:53:50;;;;;;;74.57;21.00;;;;;;;;;;5018893;28;20052;-67
2024/01/11 11:56:20;;;;;;;68.78;17.60;;;9.60;90.40;;;;;;5028716;28;20060;-67
2024/01/11 11:58:47;;;;;;;66.80;17.50;;;;;;;;;;5028156;28;20050;-68
2024/01/11 12:01:17;;;;;;;47.60;17.40;;;9.50;90.50;;;;;;5043046;28;20060;-67
2024/01/11 12:03:48;;;;;;;60.45;17.10;;;;;;;;;;4992304;28;20121;-68
2024/01/11 12:06:18;;;;;;;71.70;17.27;;;9.60;92.70;;;;;;5009254;28;20076;-67
2024/01/11 12:08:44;;;;;;;50.63;16.30;;;9.60;92.90;;;;;;4994268;28;20041;-67
2024/01/11 12:11:13;;;;;;;43.35;16.48;;;;;;;;;;5018495;28;20147;-68
2024/01/11 12:13:40;;;;;;;42.72;16.67;;;9.60;91.50;;;;;;5017554;28;20115;-68
2024/01/11 12:16:06;;;;;;;39.90;16.17;;;;;;;;;;5027469;28;20056;-68
2024/01/11 12:18:33;;;;;;;38.67;16.65;;;9.60;93.30;;;;;;4995058;28;20408;-68
2024/01/11 12:20:59;;;;;;;40.58;16.17;;;;;;;;;;5021098;28;20056;-69
2024/01/11 12:23:25;;;;;;;38.40;15.75;;;9.50;93.30;;;;;;4988234;28;20048;-67
2024/01/11 12:25:51;;;;;;;35.28;15.52;;;10.00;93.20;;;;;;4994887;28;20403;-67
2024/01/11 12:28:17;;;;;;;35.13;15.18;;;;;;;;;;5019930;28;20046;-67
2024/01/11 12:30:44;;;;;;;31.85;15.85;;;;;;;;;;5007408;28;20081;-68
2024/01/11 12:33:10;;;;;;;35.78;14.77;;;;;;;;;;5021369;28;20128;-67
2024/01/11 12:35:36;;;;;;;33.03;15.65;;;9.60;92.20;;;;;;5044248;28;20045;-68
2024/01/11 12:38:06;;;;;;;32.90;21.40;;;;;;;;;;4993753;28;20108;-67
2024/01/11 12:40:32;;;;;;;30.77;15.48;;;;;;;;;;5040182;28;20084;-67
2024/01/11 12:42:59;;;;;;;57.53;16.75;;;9.70;92.30;;;;;;5025047;28;20125;-68
2024/01/11 12:45:29;;;;;;;52.60;18.02;;;;;;;;;;4993345;28;20129;-67
2024/01/11 12:47:56;;;;;;;190.85;25.92;;;;;;;;;;5012074;28;20133;-65
2024/01/11 12:50:32;;;;;;;198.52;25.10;;;9.60;92.80;;;;;;5040094;28;20060;-66
2024/01/11 12:53:07;;;;;;;141.85;23.40;;;9.60;92.10;;;;;;5038109;28;20045;-71
2024/01/11 12:55:36;;;;;;;157.10;23.52;;;;;;;;;;5010205;28;20034;-68
2024/01/11 12:58:06;;;;;;;149.02;23.60;;;9.60;92.70;;;;;;5026830;28;20364;-67
2024/01/11 13:00:33;;;;;;;145.15;23.55;;;9.70;92.50;;;;;;5042390;28;20042;-65
2024/01/11 13:02:59;;;;;;;123.38;22.08;;;;;;;;;;4976291;28;20054;-67
2024/01/11 13:05:26;;;;;;;127.47;20.60;;;;;;;;;;4994111;28;20050;-65
2024/01/11 13:07:52;;;;;;;104.50;19.80;;;;;;;;;;4981146;28;20042;-65
2024/01/11 13:10:18;;;;;;;60.90;16.15;;;;;;;;;;5002493;28;20128;-65
2024/01/11 13:12:44;;;;;;;45.97;15.40;;;9.60;93.00;;;;;;5005836;28;20074;-66
2024/01/11 13:15:09;;;;;;;44.92;14.70;;;9.50;92.80;;;;;;5008853;28;20088;-64
2024/01/11 13:17:35;;;;;;;64.30;16.10;;;9.40;92.90;;;;;;4997124;28;20469;-64
2024/01/11 13:20:02;;;;;;;35.80;15.05;;;;;;;;;;5015928;28;20045;-65
2024/01/11 13:22:28;;;;;;;48.63;14.07;;;;;;;;;;5040103;28;20054;-64
2024/01/11 13:24:54;;;;;;;35.50;12.60;;;9.10;92.90;;;;;;5010908;28;20045;-64
2024/01/11 13:27:20;;;;;;;32.22;13.30;;;9.00;92.70;;;;;;5013133;28;20042;-62
2024/01/11 13:29:46;;;;;;;31.02;13.20;;;8.90;92.80;;;;;;5015443;28;20124;-64
2024/01/11 13:32:12;;;;;;;28.35;12.73;;;;;;;;;;5012914;28;20448;-67
2024/01/11 13:34:38;;;;;;;29.45;12.02;;;8.80;92.80;;;;;;5013621;28;20042;-64
2024/01/11 13:37:05;;;;;;;36.92;12.98;;;;;;;;;;5013267;28;20056;-64
2024/01/11 13:39:31;;;;;;;24.42;12.27;;;;;;;;;;5014619;28;20041;-64
2024/01/11 13:41:58;;;;;;;22.48;12.50;;;;;;;;;;5014600;28;20057;-65
2024/01/11 13:44:24;;;;;;;26.33;12.85;;;8.90;93.20;;;;;;5012840;28;20058;-64
2024/01/11 13:46:50;;;;;;;25.80;11.43;;;;;;;;;;5012404;28;20056;-65
2024/01/11 13:49:16;;;;;;;28.70;13.00;;;8.80;93.20;;;;;;5013440;28;20496;-64